sensor_id;sensor_type;location;lat;lon;timestamp;pressure;altitude;pressure_sealevel;temperature;humidity
71145;BME280;58812;47.698;17.726;2022-11-06T00:01:04;100450.22;;;8.99;83.83
71145;BME280;58812;47.698;17.726;2022-11-06T00:03:30;100453.00;;;8.97;83.86
71145;BME280;58812;47.698;17.726;2022-11-06T00:05:55;100459.91;;;9.00;83.53
71145;BME280;58812;47.698;17.726;2022-11-06T00:08:39;100461.72;;;8.99;83.72
71145;BME280;58812;47.698;17.726;2022-11-06T00:11:15;100453.84;;;8.98;83.81
71145;BME280;58812;47.698;17.726;2022-11-06T00:13:41;100460.28;;;8.95;84.13
71145;BME280;58812;47.698;17.726;2022-11-06T00:16:08;100455.81;;;8.96;83.56
71145;BME280;58812;47.698;17.726;2022-11-06T00:18:35;100462.12;;;8.95;84.01
71145;BME280;58812;47.698;17.726;2022-11-06T00:21:24;100463.09;;;8.94;83.97
71145;BME280;58812;47.698;17.726;2022-11-06T00:23:51;100464.78;;;8.95;83.89
71145;BME280;58812;47.698;17.726;2022-11-06T00:26:21;100464.78;;;8.95;83.75
71145;BME280;58812;47.698;17.726;2022-11-06T00:28:47;100463.09;;;8.94;83.66
71145;BME280;58812;47.698;17.726;2022-11-06T00:31:17;100467.59;;;8.93;83.76
71145;BME280;58812;47.698;17.726;2022-11-06T00:33:43;100469.41;;;8.93;83.92
71145;BME280;58812;47.698;17.726;2022-11-06T00:36:13;100457.75;;;8.94;83.68
71145;BME280;58812;47.698;17.726;2022-11-06T00:38:39;100455.81;;;8.96;83.48
71145;BME280;58812;47.698;17.726;2022-11-06T00:41:06;100454.94;;;8.95;83.20
71145;BME280;58812;47.698;17.726;2022-11-06T00:43:32;100463.84;;;8.96;83.03
71145;BME280;58812;47.698;17.726;2022-11-06T00:46:10;100460.28;;;8.95;83.21
71145;BME280;58812;47.698;17.726;2022-11-06T00:48:36;100464.78;;;8.95;83.30
71145;BME280;58812;47.698;17.726;2022-11-06T00:51:07;100454.09;;;8.95;83.09
71145;BME280;58812;47.698;17.726;2022-11-06T00:53:33;100460.44;;;8.94;83.28
71145;BME280;58812;47.698;17.726;2022-11-06T00:56:07;100455.03;;;8.84;83.44
71145;BME280;58812;47.698;17.726;2022-11-06T00:58:33;100461.41;;;8.93;83.29
71145;BME280;58812;47.698;17.726;2022-11-06T01:03:35;100462.25;;;8.93;83.15
71145;BME280;58812;47.698;17.726;2022-11-06T01:06:11;100468.44;;;8.94;83.20
71145;BME280;58812;47.698;17.726;2022-11-06T01:08:38;100462.41;;;8.92;83.59
71145;BME280;58812;47.698;17.726;2022-11-06T01:11:27;100466.75;;;8.93;83.12
71145;BME280;58812;47.698;17.726;2022-11-06T01:13:52;100464.22;;;8.91;83.35
71145;BME280;58812;47.698;17.726;2022-11-06T01:16:19;100468.13;;;8.87;83.86
71145;BME280;58812;47.698;17.726;2022-11-06T01:18:45;100465.59;;;8.86;83.84
71145;BME280;58812;47.698;17.726;2022-11-06T01:21:14;100467.28;;;8.87;83.58
71145;BME280;58812;47.698;17.726;2022-11-06T01:23:40;100465.84;;;8.82;83.93
71145;BME280;58812;47.698;17.726;2022-11-06T01:26:07;100470.34;;;8.82;83.80
71145;BME280;58812;47.698;17.726;2022-11-06T01:28:33;100460.78;;;8.79;83.96
71145;BME280;58812;47.698;17.726;2022-11-06T01:31:14;100467.81;;;8.80;83.84
71145;BME280;58812;47.698;17.726;2022-11-06T01:33:40;100469.03;;;8.76;84.23
71145;BME280;58812;47.698;17.726;2022-11-06T01:36:12;100464.66;;;8.75;84.40
71145;BME280;58812;47.698;17.726;2022-11-06T01:38:42;100455.34;;;8.70;84.53
71145;BME280;58812;47.698;17.726;2022-11-06T01:41:11;100465.19;;;8.69;84.93
71145;BME280;58812;47.698;17.726;2022-11-06T01:43:49;100457.31;;;8.68;85.06
71145;BME280;58812;47.698;17.726;2022-11-06T01:46:16;100459.16;;;8.67;84.94
71145;BME280;58812;47.698;17.726;2022-11-06T01:48:46;100454.78;;;8.66;85.21
71145;BME280;58812;47.698;17.726;2022-11-06T01:51:13;100453.34;;;8.62;85.43
71145;BME280;58812;47.698;17.726;2022-11-06T01:53:39;100451.66;;;8.61;85.61
71145;BME280;58812;47.698;17.726;2022-11-06T01:56:07;100450.91;;;8.59;85.72
71145;BME280;58812;47.698;17.726;2022-11-06T01:58:36;100450.22;;;8.57;85.96
71145;BME280;58812;47.698;17.726;2022-11-06T02:01:03;100458.22;;;8.57;85.86
71145;BME280;58812;47.698;17.726;2022-11-06T02:03:29;100454.09;;;8.53;85.91
71145;BME280;58812;47.698;17.726;2022-11-06T02:05:55;100467.34;;;8.54;85.90
71145;BME280;58812;47.698;17.726;2022-11-06T02:08:22;100462.84;;;8.55;86.07
71145;BME280;58812;47.698;17.726;2022-11-06T02:10:48;100478.00;;;8.54;86.27
71145;BME280;58812;47.698;17.726;2022-11-06T02:16:12;100471.84;;;8.54;86.19
71145;BME280;58812;47.698;17.726;2022-11-06T02:27:34;100479.22;;;8.50;86.50
71145;BME280;58812;47.698;17.726;2022-11-06T02:30:10;100460.56;;;8.50;86.61
71145;BME280;58812;47.698;17.726;2022-11-06T02:32:56;100461.69;;;8.48;86.48
71145;BME280;58812;47.698;17.726;2022-11-06T02:35:39;100471.09;;;8.52;86.56
71145;BME280;58812;47.698;17.726;2022-11-06T02:38:09;100469.41;;;8.51;86.37
71145;BME280;58812;47.698;17.726;2022-11-06T02:40:38;100465.06;;;8.50;86.54
71145;BME280;58812;47.698;17.726;2022-11-06T02:43:07;100471.22;;;8.50;86.32
71145;BME280;58812;47.698;17.726;2022-11-06T02:45:44;100472.91;;;8.51;86.51
71145;BME280;58812;47.698;17.726;2022-11-06T02:48:13;100481.91;;;8.50;86.54
71145;BME280;58812;47.698;17.726;2022-11-06T02:50:43;100476.69;;;8.49;86.58
71145;BME280;58812;47.698;17.726;2022-11-06T02:53:12;100483.88;;;8.48;86.44
71145;BME280;58812;47.698;17.726;2022-11-06T02:55:52;100479.62;;;8.46;86.56
71145;BME280;58812;47.698;17.726;2022-11-06T02:58:42;100484.09;;;8.45;86.65
71145;BME280;58812;47.698;17.726;2022-11-06T03:01:18;100488.59;;;8.45;86.75
71145;BME280;58812;47.698;17.726;2022-11-06T03:03:50;100490.56;;;8.43;86.96
71145;BME280;58812;47.698;17.726;2022-11-06T03:06:32;100491.63;;;8.40;87.02
71145;BME280;58812;47.698;17.726;2022-11-06T03:09:06;100477.22;;;8.32;86.97
71145;BME280;58812;47.698;17.726;2022-11-06T03:11:33;100490.94;;;8.38;87.00
71145;BME280;58812;47.698;17.726;2022-11-06T03:14:28;100504.25;;;8.38;87.38
71145;BME280;58812;47.698;17.726;2022-11-06T03:17:03;100510.59;;;8.37;87.29
71145;BME280;58812;47.698;17.726;2022-11-06T03:19:40;100507.06;;;8.37;87.27
71145;BME280;58812;47.698;17.726;2022-11-06T03:24:54;100515.06;;;8.37;87.25
71145;BME280;58812;47.698;17.726;2022-11-06T03:27:33;100521.25;;;8.37;87.27
71145;BME280;58812;47.698;17.726;2022-11-06T03:30:07;100511.56;;;8.36;87.34
71145;BME280;58812;47.698;17.726;2022-11-06T03:35:22;100523.91;;;8.37;87.22
71145;BME280;58812;47.698;17.726;2022-11-06T03:38:17;100517.09;;;8.33;87.35
71145;BME280;58812;47.698;17.726;2022-11-06T03:40:48;100528.63;;;8.34;87.47
71145;BME280;58812;47.698;17.726;2022-11-06T03:43:19;100524.97;;;8.35;87.49
71145;BME280;58812;47.698;17.726;2022-11-06T03:45:47;100526.91;;;8.33;87.82
71145;BME280;58812;47.698;17.726;2022-11-06T03:50:49;100528.97;;;8.29;88.40
71145;BME280;58812;47.698;17.726;2022-11-06T03:56:14;100547.06;;;8.25;88.32
71145;BME280;58812;47.698;17.726;2022-11-06T03:58:43;100540.06;;;8.24;88.29
71145;BME280;58812;47.698;17.726;2022-11-06T04:01:11;100541.75;;;8.25;88.29
71145;BME280;58812;47.698;17.726;2022-11-06T04:04:10;100548.06;;;8.24;88.39
71145;BME280;58812;47.698;17.726;2022-11-06T04:06:41;100554.34;;;8.23;88.16
71145;BME280;58812;47.698;17.726;2022-11-06T04:09:10;100561.38;;;8.24;88.08
71145;BME280;58812;47.698;17.726;2022-11-06T04:11:58;100553.47;;;8.23;88.08
71145;BME280;58812;47.698;17.726;2022-11-06T04:14:46;100553.62;;;8.21;88.38
71145;BME280;58812;47.698;17.726;2022-11-06T04:17:14;100559.66;;;8.23;88.14
71145;BME280;58812;47.698;17.726;2022-11-06T04:19:56;100551.94;;;8.20;88.20
71145;BME280;58812;47.698;17.726;2022-11-06T04:22:53;100554.59;;;8.20;88.67
71145;BME280;58812;47.698;17.726;2022-11-06T04:28:51;100556.41;;;8.20;88.41
71145;BME280;58812;47.698;17.726;2022-11-06T04:44:46;100549.00;;;8.12;88.40
71145;BME280;58812;47.698;17.726;2022-11-06T04:47:16;100546.63;;;8.09;88.48
71145;BME280;58812;47.698;17.726;2022-11-06T04:49:43;100552.91;;;8.08;88.55
71145;BME280;58812;47.698;17.726;2022-11-06T04:52:12;100551.47;;;8.04;88.49
71145;BME280;58812;47.698;17.726;2022-11-06T04:54:39;100553.41;;;8.02;88.56
71145;BME280;58812;47.698;17.726;2022-11-06T04:57:05;100552.66;;;8.00;88.67
71145;BME280;58812;47.698;17.726;2022-11-06T04:59:33;100552.66;;;8.00;88.63
71145;BME280;58812;47.698;17.726;2022-11-06T05:01:59;100557.28;;;7.98;88.92
71145;BME280;58812;47.698;17.726;2022-11-06T05:04:25;100554.75;;;7.96;88.71
71145;BME280;58812;47.698;17.726;2022-11-06T05:06:50;100552.94;;;7.97;88.78
71145;BME280;58812;47.698;17.726;2022-11-06T05:09:16;100549.56;;;7.95;89.07
71145;BME280;58812;47.698;17.726;2022-11-06T05:11:41;100554.88;;;7.95;88.99
71145;BME280;58812;47.698;17.726;2022-11-06T05:14:06;100547.00;;;7.93;88.84
71145;BME280;58812;47.698;17.726;2022-11-06T05:16:32;100546.13;;;7.93;89.09
71145;BME280;58812;47.698;17.726;2022-11-06T05:18:57;100548.09;;;7.91;89.38
71145;BME280;58812;47.698;17.726;2022-11-06T05:21:23;100541.06;;;7.90;89.26
71145;BME280;58812;47.698;17.726;2022-11-06T05:24:07;100546.41;;;7.90;89.45
71145;BME280;58812;47.698;17.726;2022-11-06T05:26:32;100554.41;;;7.90;89.58
71145;BME280;58812;47.698;17.726;2022-11-06T05:28:58;100556.31;;;7.88;89.48
71145;BME280;58812;47.698;17.726;2022-11-06T05:31:23;100554.63;;;7.87;89.69
71145;BME280;58812;47.698;17.726;2022-11-06T05:33:49;100557.28;;;7.87;89.55
71145;BME280;58812;47.698;17.726;2022-11-06T05:36:14;100557.91;;;7.90;89.59
71145;BME280;58812;47.698;17.726;2022-11-06T05:38:40;100558.28;;;7.86;89.82
71145;BME280;58812;47.698;17.726;2022-11-06T05:41:05;100561.78;;;7.86;89.67
71145;BME280;58812;47.698;17.726;2022-11-06T05:43:31;100567.25;;;7.85;89.80
71145;BME280;58812;47.698;17.726;2022-11-06T05:45:56;100570.75;;;7.85;89.98
71145;BME280;58812;47.698;17.726;2022-11-06T05:48:22;100572.44;;;7.86;90.18
71145;BME280;58812;47.698;17.726;2022-11-06T05:50:47;100572.44;;;7.86;90.05
71145;BME280;58812;47.698;17.726;2022-11-06T05:53:13;100576.22;;;7.84;90.11
71145;BME280;58812;47.698;17.726;2022-11-06T05:55:38;100576.09;;;7.85;90.36
71145;BME280;58812;47.698;17.726;2022-11-06T05:58:03;100570.13;;;7.82;90.30
71145;BME280;58812;47.698;17.726;2022-11-06T06:00:29;100579.09;;;7.81;90.15
71145;BME280;58812;47.698;17.726;2022-11-06T06:02:54;100582.50;;;7.83;90.21
71145;BME280;58812;47.698;17.726;2022-11-06T06:05:20;100585.28;;;7.81;90.49
71145;BME280;58812;47.698;17.726;2022-11-06T06:07:45;100598.50;;;7.83;90.31
71145;BME280;58812;47.698;17.726;2022-11-06T06:10:10;100591.34;;;7.83;90.21
71145;BME280;58812;47.698;17.726;2022-11-06T06:12:36;100595.72;;;7.84;89.96
71145;BME280;58812;47.698;17.726;2022-11-06T06:15:03;100599.09;;;7.86;90.00
71145;BME280;58812;47.698;17.726;2022-11-06T06:17:29;100601.91;;;7.85;90.26
71145;BME280;58812;47.698;17.726;2022-11-06T06:19:54;100606.37;;;7.84;90.27
71145;BME280;58812;47.698;17.726;2022-11-06T06:22:20;100608.91;;;7.86;90.35
71145;BME280;58812;47.698;17.726;2022-11-06T06:24:45;100609.16;;;7.83;90.12
71145;BME280;58812;47.698;17.726;2022-11-06T06:27:10;100607.22;;;7.85;90.14
71145;BME280;58812;47.698;17.726;2022-11-06T06:29:36;100613.53;;;7.84;90.21
71145;BME280;58812;47.698;17.726;2022-11-06T06:32:02;100610.72;;;7.85;90.17
71145;BME280;58812;47.698;17.726;2022-11-06T06:34:28;100613.53;;;7.84;90.35
71145;BME280;58812;47.698;17.726;2022-11-06T06:36:53;100609.75;;;7.86;90.14
71145;BME280;58812;47.698;17.726;2022-11-06T06:39:19;100612.56;;;7.85;89.92
71145;BME280;58812;47.698;17.726;2022-11-06T06:41:48;100612.69;;;7.83;90.39
71145;BME280;58812;47.698;17.726;2022-11-06T06:44:13;100615.09;;;7.86;90.11
71145;BME280;58812;47.698;17.726;2022-11-06T06:46:39;100618.72;;;7.85;90.00
71145;BME280;58812;47.698;17.726;2022-11-06T06:49:05;100618.59;;;7.87;90.09
71145;BME280;58812;47.698;17.726;2022-11-06T06:51:30;100619.56;;;7.86;90.13
71145;BME280;58812;47.698;17.726;2022-11-06T06:53:56;100622.84;;;7.89;90.35
71145;BME280;58812;47.698;17.726;2022-11-06T06:56:21;100621.03;;;7.90;90.17
71145;BME280;58812;47.698;17.726;2022-11-06T06:58:47;100623.81;;;7.88;89.93
71145;BME280;58812;47.698;17.726;2022-11-06T07:01:12;100619.56;;;7.86;90.24
71145;BME280;58812;47.698;17.726;2022-11-06T07:03:38;100630.00;;;7.89;90.04
71145;BME280;58812;47.698;17.726;2022-11-06T07:06:04;100611.09;;;7.81;89.97
71145;BME280;58812;47.698;17.726;2022-11-06T07:08:30;100621.88;;;7.90;90.14
71145;BME280;58812;47.698;17.726;2022-11-06T07:11:00;100636.78;;;7.93;90.11
71145;BME280;58812;47.698;17.726;2022-11-06T07:13:25;100626.13;;;7.93;90.25
71145;BME280;58812;47.698;17.726;2022-11-06T07:15:51;100627.72;;;7.95;90.15
71145;BME280;58812;47.698;17.726;2022-11-06T07:18:16;100636.56;;;7.96;89.99
71145;BME280;58812;47.698;17.726;2022-11-06T07:20:41;100629.28;;;7.98;90.02
71145;BME280;58812;47.698;17.726;2022-11-06T07:23:07;100641.28;;;8.03;89.75
71145;BME280;58812;47.698;17.726;2022-11-06T07:25:34;100644.78;;;8.04;89.68
71145;BME280;58812;47.698;17.726;2022-11-06T07:28:00;100639.44;;;8.04;89.47
71145;BME280;58812;47.698;17.726;2022-11-06T07:30:26;100639.22;;;8.07;89.55
71145;BME280;58812;47.698;17.726;2022-11-06T07:32:52;100638.97;;;8.10;89.74
71145;BME280;58812;47.698;17.726;2022-11-06T07:35:17;100629.28;;;8.09;89.57
71145;BME280;58812;47.698;17.726;2022-11-06T07:37:42;100637.28;;;8.09;89.48
71145;BME280;58812;47.698;17.726;2022-11-06T07:40:09;100644.06;;;8.13;89.32
71145;BME280;58812;47.698;17.726;2022-11-06T07:42:34;100641.88;;;8.18;89.19
71145;BME280;58812;47.698;17.726;2022-11-06T07:45:00;100642.12;;;8.15;88.76
71145;BME280;58812;47.698;17.726;2022-11-06T07:47:25;100645.28;;;8.20;88.98
71145;BME280;58812;47.698;17.726;2022-11-06T07:49:52;100651.59;;;8.30;88.73
71145;BME280;58812;47.698;17.726;2022-11-06T07:52:17;100649.28;;;8.26;88.34
71145;BME280;58812;47.698;17.726;2022-11-06T07:54:42;100650.13;;;8.26;88.12
71145;BME280;58812;47.698;17.726;2022-11-06T07:57:08;100640.66;;;8.34;88.42
71145;BME280;58812;47.698;17.726;2022-11-06T07:59:33;100637.84;;;8.35;88.11
71145;BME280;58812;47.698;17.726;2022-11-06T08:01:58;100644.06;;;8.36;88.10
71145;BME280;58812;47.698;17.726;2022-11-06T08:04:24;100648.31;;;8.38;88.35
71145;BME280;58812;47.698;17.726;2022-11-06T08:06:49;100647.34;;;8.50;87.73
71145;BME280;58812;47.698;17.726;2022-11-06T08:09:14;100645.28;;;8.54;87.56
71145;BME280;58812;47.698;17.726;2022-11-06T08:11:40;100639.81;;;8.55;87.37
71145;BME280;58812;47.698;17.726;2022-11-06T08:14:06;100643.81;;;8.61;87.11
71145;BME280;58812;47.698;17.726;2022-11-06T08:16:31;100635.31;;;8.56;86.44
71145;BME280;58812;47.698;17.726;2022-11-06T08:18:57;100637.50;;;8.62;86.69
71145;BME280;58812;47.698;17.726;2022-11-06T08:21:22;100639.66;;;8.68;86.49
71145;BME280;58812;47.698;17.726;2022-11-06T08:23:48;100632.47;;;8.80;86.07
71145;BME280;58812;47.698;17.726;2022-11-06T08:26:13;100628.44;;;8.86;85.70
71145;BME280;58812;47.698;17.726;2022-11-06T08:28:39;100636.69;;;8.82;85.39
71145;BME280;58812;47.698;17.726;2022-11-06T08:31:06;100639.81;;;8.88;85.14
71145;BME280;58812;47.698;17.726;2022-11-06T08:33:33;100633.50;;;8.89;84.96
71145;BME280;58812;47.698;17.726;2022-11-06T08:36:03;100626.19;;;9.02;84.80
71145;BME280;58812;47.698;17.726;2022-11-06T08:38:29;100631.75;;;9.10;84.68
71145;BME280;58812;47.698;17.726;2022-11-06T08:40:54;100632.06;;;9.17;84.19
71145;BME280;58812;47.698;17.726;2022-11-06T08:43:20;100623.97;;;9.07;83.85
71145;BME280;58812;47.698;17.726;2022-11-06T08:45:48;100621.53;;;9.15;83.87
71145;BME280;58812;47.698;17.726;2022-11-06T08:48:13;100623.16;;;9.27;83.33
71145;BME280;58812;47.698;17.726;2022-11-06T08:50:39;100626.81;;;9.26;82.59
71145;BME280;58812;47.698;17.726;2022-11-06T08:53:06;100633.50;;;9.42;82.71
71145;BME280;58812;47.698;17.726;2022-11-06T08:55:33;100622.59;;;9.45;82.78
71145;BME280;58812;47.698;17.726;2022-11-06T08:57:59;100622.97;;;9.61;82.83
71145;BME280;58812;47.698;17.726;2022-11-06T09:00:25;100625.97;;;9.68;81.96
71145;BME280;58812;47.698;17.726;2022-11-06T09:02:57;100619.78;;;9.46;81.91
71145;BME280;58812;47.698;17.726;2022-11-06T09:05:22;100622.63;;;9.75;81.65
71145;BME280;58812;47.698;17.726;2022-11-06T09:07:47;100635.53;;;10.01;81.07
71145;BME280;58812;47.698;17.726;2022-11-06T09:10:13;100630.47;;;9.98;80.50
71145;BME280;58812;47.698;17.726;2022-11-06T09:12:38;100633.91;;;10.09;79.96
71145;BME280;58812;47.698;17.726;2022-11-06T09:15:04;100632.53;;;10.15;80.12
71145;BME280;58812;47.698;17.726;2022-11-06T09:17:29;100636.53;;;10.30;78.92
71145;BME280;58812;47.698;17.726;2022-11-06T09:19:55;100631.97;;;10.52;78.91
71145;BME280;58812;47.698;17.726;2022-11-06T09:22:20;100633.22;;;10.48;78.35
71145;BME280;58812;47.698;17.726;2022-11-06T09:24:45;100630.84;;;10.45;78.73
71145;BME280;58812;47.698;17.726;2022-11-06T09:27:11;100627.47;;;10.22;78.85
71145;BME280;58812;47.698;17.726;2022-11-06T09:29:36;100631.38;;;10.38;79.04
71145;BME280;58812;47.698;17.726;2022-11-06T09:32:05;100620.63;;;10.29;78.36
71145;BME280;58812;47.698;17.726;2022-11-06T09:34:31;100626.87;;;10.39;78.37
71145;BME280;58812;47.698;17.726;2022-11-06T09:36:56;100632.22;;;10.39;77.79
71145;BME280;58812;47.698;17.726;2022-11-06T09:39:22;100624.22;;;10.58;76.95
71145;BME280;58812;47.698;17.726;2022-11-06T09:46:47;100617.66;;;10.82;76.29
71145;BME280;58812;47.698;17.726;2022-11-06T09:49:35;100625.53;;;10.74;76.58
71145;BME280;58812;47.698;17.726;2022-11-06T09:55:15;100624.13;;;10.89;76.16
71145;BME280;58812;47.698;17.726;2022-11-06T09:58:08;100626.22;;;10.66;76.06
71145;BME280;58812;47.698;17.726;2022-11-06T10:00:38;100616.94;;;10.89;75.82
71145;BME280;58812;47.698;17.726;2022-11-06T10:05:36;100620.47;;;10.90;76.08
71145;BME280;58812;47.698;17.726;2022-11-06T10:11:17;100608.34;;;11.05;75.74
71145;BME280;58812;47.698;17.726;2022-11-06T10:17:00;100607.22;;;11.17;75.49
71145;BME280;58812;47.698;17.726;2022-11-06T10:22:14;100603.97;;;11.23;75.35
71145;BME280;58812;47.698;17.726;2022-11-06T10:25:35;100597.75;;;11.23;75.06
71145;BME280;58812;47.698;17.726;2022-11-06T10:28:19;100597.91;;;11.21;75.53
71145;BME280;58812;47.698;17.726;2022-11-06T10:36:14;100581.81;;;11.41;74.34
71145;BME280;58812;47.698;17.726;2022-11-06T10:38:44;100582.66;;;11.32;74.53
71145;BME280;58812;47.698;17.726;2022-11-06T10:41:17;100588.00;;;11.41;73.81
71145;BME280;58812;47.698;17.726;2022-11-06T10:43:50;100579.50;;;11.56;74.81
71145;BME280;58812;47.698;17.726;2022-11-06T10:48:52;100582.50;;;11.43;73.57
71145;BME280;58812;47.698;17.726;2022-11-06T10:51:48;100578.09;;;11.52;74.38
71145;BME280;58812;47.698;17.726;2022-11-06T11:00:02;100582.87;;;11.58;74.49
71145;BME280;58812;47.698;17.726;2022-11-06T11:02:32;100563.97;;;11.49;74.43
71145;BME280;58812;47.698;17.726;2022-11-06T11:04:58;100567.31;;;11.71;73.25
71145;BME280;58812;47.698;17.726;2022-11-06T11:07:25;100557.66;;;11.50;73.29
71145;BME280;58812;47.698;17.726;2022-11-06T11:09:52;100564.31;;;11.93;72.79
71145;BME280;58812;47.698;17.726;2022-11-06T11:12:27;100565.66;;;12.07;72.32
71145;BME280;58812;47.698;17.726;2022-11-06T11:15:26;100561.00;;;12.27;72.19
71145;BME280;58812;47.698;17.726;2022-11-06T11:18:08;100568.47;;;12.06;72.87
71145;BME280;58812;47.698;17.726;2022-11-06T11:20:36;100560.06;;;11.91;72.79
71145;BME280;58812;47.698;17.726;2022-11-06T11:23:05;100553.00;;;11.90;72.66
71145;BME280;58812;47.698;17.726;2022-11-06T11:25:31;100550.06;;;11.83;72.74
71145;BME280;58812;47.698;17.726;2022-11-06T11:27:57;100554.28;;;11.86;72.72
71145;BME280;58812;47.698;17.726;2022-11-06T11:30:24;100547.41;;;11.83;72.25
71145;BME280;58812;47.698;17.726;2022-11-06T11:32:51;100551.28;;;11.98;72.72
71145;BME280;58812;47.698;17.726;2022-11-06T11:35:24;100553.56;;;11.93;72.35
71145;BME280;58812;47.698;17.726;2022-11-06T11:37:51;100552.81;;;11.64;72.84
71145;BME280;58812;47.698;17.726;2022-11-06T11:40:34;100543.44;;;11.87;73.11
71145;BME280;58812;47.698;17.726;2022-11-06T11:43:28;100549.41;;;11.81;73.10
71145;BME280;58812;47.698;17.726;2022-11-06T11:48:40;100547.12;;;11.67;73.01
71145;BME280;58812;47.698;17.726;2022-11-06T11:53:45;100552.78;;;12.11;73.57
71145;BME280;58812;47.698;17.726;2022-11-06T11:56:15;100543.97;;;12.18;71.71
71145;BME280;58812;47.698;17.726;2022-11-06T11:58:48;100539.53;;;12.27;71.40
71145;BME280;58812;47.698;17.726;2022-11-06T12:01:14;100537.12;;;12.34;71.82
71145;BME280;58812;47.698;17.726;2022-11-06T12:03:43;100537.81;;;12.08;71.19
71145;BME280;58812;47.698;17.726;2022-11-06T12:06:13;100545.56;;;12.11;71.89
71145;BME280;58812;47.698;17.726;2022-11-06T12:08:45;100542.66;;;12.05;71.93
71145;BME280;58812;47.698;17.726;2022-11-06T12:11:17;100550.88;;;12.21;72.05
71145;BME280;58812;47.698;17.726;2022-11-06T12:13:43;100546.94;;;12.15;72.47
71145;BME280;58812;47.698;17.726;2022-11-06T12:16:17;100537.38;;;12.13;72.25
71145;BME280;58812;47.698;17.726;2022-11-06T12:18:46;100540.44;;;12.18;72.29
71145;BME280;58812;47.698;17.726;2022-11-06T12:23:54;100533.62;;;12.23;72.30
71145;BME280;58812;47.698;17.726;2022-11-06T12:29:11;100534.84;;;12.11;72.22
71145;BME280;58812;47.698;17.726;2022-11-06T12:37:36;100529.88;;;11.89;73.82
71145;BME280;58812;47.698;17.726;2022-11-06T12:40:29;100527.78;;;11.73;74.43
71145;BME280;58812;47.698;17.726;2022-11-06T12:53:52;100521.44;;;11.74;74.91
71145;BME280;58812;47.698;17.726;2022-11-06T12:56:26;100519.22;;;11.60;76.00
71145;BME280;58812;47.698;17.726;2022-11-06T13:04:54;100527.75;;;11.45;75.82
71145;BME280;58812;47.698;17.726;2022-11-06T13:15:41;100524.22;;;11.45;75.60
71145;BME280;58812;47.698;17.726;2022-11-06T13:18:17;100528.63;;;11.36;76.26
71145;BME280;58812;47.698;17.726;2022-11-06T13:20:53;100522.13;;;11.39;75.92
71145;BME280;58812;47.698;17.726;2022-11-06T13:23:28;100520.88;;;11.33;75.99
71145;BME280;58812;47.698;17.726;2022-11-06T13:26:27;100522.66;;;11.42;76.30
71145;BME280;58812;47.698;17.726;2022-11-06T13:28:56;100519.88;;;11.34;76.53
71145;BME280;58812;47.698;17.726;2022-11-06T13:31:50;100522.56;;;11.34;77.08
71145;BME280;58812;47.698;17.726;2022-11-06T13:34:25;100519.88;;;11.34;76.36
71145;BME280;58812;47.698;17.726;2022-11-06T13:36:54;100519.31;;;11.40;76.15
71145;BME280;58812;47.698;17.726;2022-11-06T13:39:33;100516.72;;;11.48;76.18
71145;BME280;58812;47.698;17.726;2022-11-06T13:42:01;100519.25;;;11.50;76.46
71145;BME280;58812;47.698;17.726;2022-11-06T13:44:28;100515.63;;;11.41;76.38
71145;BME280;58812;47.698;17.726;2022-11-06T13:49:27;100510.25;;;11.41;76.77
71145;BME280;58812;47.698;17.726;2022-11-06T13:52:02;100505.50;;;11.35;76.26
71145;BME280;58812;47.698;17.726;2022-11-06T14:08:02;100493.91;;;11.44;77.50
71145;BME280;58812;47.698;17.726;2022-11-06T14:10:37;100484.87;;;11.45;76.75
71145;BME280;58812;47.698;17.726;2022-11-06T14:13:05;100482.03;;;11.47;76.80
71145;BME280;58812;47.698;17.726;2022-11-06T14:15:35;100484.56;;;11.48;77.06
71145;BME280;58812;47.698;17.726;2022-11-06T14:18:02;100482.72;;;11.49;76.99
71145;BME280;58812;47.698;17.726;2022-11-06T14:20:37;100484.87;;;11.45;76.92
71145;BME280;58812;47.698;17.726;2022-11-06T14:26:00;100498.97;;;11.38;77.61
71145;BME280;58812;47.698;17.726;2022-11-06T14:28:31;100500.12;;;11.35;77.95
71145;BME280;58812;47.698;17.726;2022-11-06T14:30:57;100498.97;;;11.38;78.16
71145;BME280;58812;47.698;17.726;2022-11-06T14:36:28;100492.50;;;11.31;77.57
71145;BME280;58812;47.698;17.726;2022-11-06T14:38:53;100487.59;;;11.26;77.77
71145;BME280;58812;47.698;17.726;2022-11-06T14:44:17;100490.25;;;11.26;79.00
71145;BME280;58812;47.698;17.726;2022-11-06T14:46:54;100489.16;;;11.19;78.58
71145;BME280;58812;47.698;17.726;2022-11-06T14:49:32;100486.38;;;11.11;78.12
71145;BME280;58812;47.698;17.726;2022-11-06T14:52:02;100484.81;;;11.08;78.63
71145;BME280;58812;47.698;17.726;2022-11-06T14:54:29;100480.75;;;11.04;78.66
71145;BME280;58812;47.698;17.726;2022-11-06T14:56:56;100479.91;;;11.04;79.20
71145;BME280;58812;47.698;17.726;2022-11-06T14:59:40;100476.91;;;11.07;79.57
71145;BME280;58812;47.698;17.726;2022-11-06T15:02:22;100468.88;;;11.07;79.37
71145;BME280;58812;47.698;17.726;2022-11-06T15:05:14;100473.97;;;11.10;79.52
71145;BME280;58812;47.698;17.726;2022-11-06T15:15:36;100475.50;;;11.03;80.77
71145;BME280;58812;47.698;17.726;2022-11-06T15:18:09;100474.53;;;11.04;80.58
71145;BME280;58812;47.698;17.726;2022-11-06T15:20:36;100470.31;;;11.01;80.55
71145;BME280;58812;47.698;17.726;2022-11-06T15:23:15;100466.09;;;10.99;80.73
71145;BME280;58812;47.698;17.726;2022-11-06T15:25:48;100472.13;;;11.01;81.48
71145;BME280;58812;47.698;17.726;2022-11-06T15:28:19;100470.87;;;10.95;81.34
71145;BME280;58812;47.698;17.726;2022-11-06T15:30:47;100462.00;;;10.94;82.31